Drywood, Kansas
Current Conditions -  °F | °C
As of 4:35 AM on Sunday 21 Dec 2014 (Local Time) from KPTS Reporting Station
Overcast Overcast  
Wind Chill: 38°   Ceiling: 1400
Heat Index: 43°   Visibility: 7mi
Dew Point: 42°   Wind: 9mph
Humidity: 95%   Direction: 200°SSW
Pressure: 30.08"   Gusts: NA
Location:  37.6277°N, 94.7013°W
Report Text: KPTS 211035Z AUTO 20008KT 7SM OVC014 06/06 A3008 RMK AO2 T00630056
Loading
Personal Weather Stations






























Interactive Weather Map New forecast layout! Learn more

10-Day Weather Forecast

Advertisements
Track Severe Weather on mobile